sensor_id;sensor_type;location;lat;lon;timestamp;pressure;altitude;pressure_sealevel;temperature;humidity
63306;BME280;50735;52.060;1.248;2023-03-20T00:01:02;101572.69;;;7.15;51.25
63306;BME280;50735;52.060;1.248;2023-03-20T00:03:34;101561.18;;;6.66;51.35
63306;BME280;50735;52.060;1.248;2023-03-20T00:06:13;101554.92;;;6.76;51.62
63306;BME280;50735;52.060;1.248;2023-03-20T00:08:46;101555.26;;;6.74;51.81
63306;BME280;50735;52.060;1.248;2023-03-20T00:11:27;101547.14;;;6.85;52.04
63306;BME280;50735;52.060;1.248;2023-03-20T00:14:01;101540.56;;;6.88;52.18
63306;BME280;50735;52.060;1.248;2023-03-20T00:16:35;101535.27;;;6.63;52.27
63306;BME280;50735;52.060;1.248;2023-03-20T00:19:14;101530.41;;;6.64;52.31
63306;BME280;50735;52.060;1.248;2023-03-20T00:21:46;101519.52;;;6.90;52.36
63306;BME280;50735;52.060;1.248;2023-03-20T00:24:18;101513.66;;;6.51;52.72
63306;BME280;50735;52.060;1.248;2023-03-20T00:26:51;101518.48;;;6.76;52.65
63306;BME280;50735;52.060;1.248;2023-03-20T00:29:25;101520.10;;;6.83;52.67
63306;BME280;50735;52.060;1.248;2023-03-20T00:31:58;101523.33;;;6.64;52.81
63306;BME280;50735;52.060;1.248;2023-03-20T00:34:30;101516.11;;;6.60;53.14
63306;BME280;50735;52.060;1.248;2023-03-20T00:37:02;101517.21;;;6.91;52.90
63306;BME280;50735;52.060;1.248;2023-03-20T00:39:33;101528.65;;;6.88;52.84
63306;BME280;50735;52.060;1.248;2023-03-20T00:42:06;101530.32;;;6.58;52.68
63306;BME280;50735;52.060;1.248;2023-03-20T00:44:48;101528.61;;;6.96;52.89
63306;BME280;50735;52.060;1.248;2023-03-20T00:47:22;101525.38;;;6.92;52.64
63306;BME280;50735;52.060;1.248;2023-03-20T00:49:55;101530.93;;;7.10;52.64
63306;BME280;50735;52.060;1.248;2023-03-20T00:52:26;101532.67;;;7.02;52.98
63306;BME280;50735;52.060;1.248;2023-03-20T00:54:58;101532.31;;;6.86;52.89
63306;BME280;50735;52.060;1.248;2023-03-20T00:57:33;101526.74;;;6.86;52.83
63306;BME280;50735;52.060;1.248;2023-03-20T01:00:19;101523.86;;;6.92;53.19
63306;BME280;50735;52.060;1.248;2023-03-20T01:02:54;101521.54;;;6.86;53.40
63306;BME280;50735;52.060;1.248;2023-03-20T01:05:27;101527.16;;;6.88;53.40
63306;BME280;50735;52.060;1.248;2023-03-20T01:07:58;101527.23;;;6.86;53.00
63306;BME280;50735;52.060;1.248;2023-03-20T01:10:31;101526.15;;;7.11;52.82
63306;BME280;50735;52.060;1.248;2023-03-20T01:13:04;101530.02;;;6.92;52.98
63306;BME280;50735;52.060;1.248;2023-03-20T01:15:37;101531.07;;;6.87;53.05
63306;BME280;50735;52.060;1.248;2023-03-20T01:18:11;101531.18;;;6.92;52.95
63306;BME280;50735;52.060;1.248;2023-03-20T01:20:43;101528.76;;;7.15;52.87
63306;BME280;50735;52.060;1.248;2023-03-20T01:23:15;101526.67;;;7.09;52.69
63306;BME280;50735;52.060;1.248;2023-03-20T01:25:48;101527.63;;;7.28;52.62
63306;BME280;50735;52.060;1.248;2023-03-20T01:28:22;101522.42;;;7.16;52.93
63306;BME280;50735;52.060;1.248;2023-03-20T01:30:54;101513.35;;;7.05;53.02
63306;BME280;50735;52.060;1.248;2023-03-20T01:33:26;101508.50;;;6.86;53.55
63306;BME280;50735;52.060;1.248;2023-03-20T01:35:58;101507.78;;;6.78;53.92
63306;BME280;50735;52.060;1.248;2023-03-20T01:38:30;101511.67;;;6.85;53.77
63306;BME280;50735;52.060;1.248;2023-03-20T01:41:05;101501.77;;;6.71;53.96
63306;BME280;50735;52.060;1.248;2023-03-20T01:43:38;101507.54;;;6.66;54.28
63306;BME280;50735;52.060;1.248;2023-03-20T01:46:16;101505.85;;;6.74;54.26
63306;BME280;50735;52.060;1.248;2023-03-20T01:49:00;101498.92;;;6.73;54.24
63306;BME280;50735;52.060;1.248;2023-03-20T01:51:32;101498.26;;;6.71;54.00
63306;BME280;50735;52.060;1.248;2023-03-20T01:54:06;101492.30;;;6.83;53.89
63306;BME280;50735;52.060;1.248;2023-03-20T01:56:44;101485.73;;;6.45;54.59
63306;BME280;50735;52.060;1.248;2023-03-20T01:59:20;101486.84;;;6.71;53.99
63306;BME280;50735;52.060;1.248;2023-03-20T02:01:55;101485.95;;;6.70;54.05
63306;BME280;50735;52.060;1.248;2023-03-20T02:04:33;101481.88;;;6.82;54.16
63306;BME280;50735;52.060;1.248;2023-03-20T02:07:07;101479.95;;;6.77;54.39
63306;BME280;50735;52.060;1.248;2023-03-20T02:09:41;101478.58;;;6.30;54.48
63306;BME280;50735;52.060;1.248;2023-03-20T02:12:13;101471.88;;;6.17;55.40
63306;BME280;50735;52.060;1.248;2023-03-20T02:14:46;101471.83;;;6.13;55.48
63306;BME280;50735;52.060;1.248;2023-03-20T02:17:18;101477.80;;;6.32;55.50
63306;BME280;50735;52.060;1.248;2023-03-20T02:19:59;101470.01;;;6.38;55.34
63306;BME280;50735;52.060;1.248;2023-03-20T02:22:48;101463.47;;;6.30;55.38
63306;BME280;50735;52.060;1.248;2023-03-20T02:25:42;101457.32;;;6.27;55.78
63306;BME280;50735;52.060;1.248;2023-03-20T02:28:44;101456.93;;;6.32;55.08
63306;BME280;50735;52.060;1.248;2023-03-20T02:31:36;101451.33;;;6.56;55.03
63306;BME280;50735;52.060;1.248;2023-03-20T02:34:39;101449.48;;;6.51;55.07
63306;BME280;50735;52.060;1.248;2023-03-20T02:39:30;101444.60;;;6.71;55.78
63306;BME280;50735;52.060;1.248;2023-03-20T02:42:07;101443.75;;;6.35;55.84
63306;BME280;50735;52.060;1.248;2023-03-20T02:44:46;101439.25;;;6.38;55.67
63306;BME280;50735;52.060;1.248;2023-03-20T02:47:26;101435.47;;;6.20;55.74
63306;BME280;50735;52.060;1.248;2023-03-20T02:50:07;101433.23;;;6.39;55.82
63306;BME280;50735;52.060;1.248;2023-03-20T02:52:46;101427.86;;;6.32;55.93
63306;BME280;50735;52.060;1.248;2023-03-20T02:55:26;101424.60;;;6.26;56.13
63306;BME280;50735;52.060;1.248;2023-03-20T02:58:08;101421.15;;;6.06;56.52
63306;BME280;50735;52.060;1.248;2023-03-20T03:00:46;101420.95;;;6.35;56.03
63306;BME280;50735;52.060;1.248;2023-03-20T03:03:23;101417.61;;;6.30;55.97
63306;BME280;50735;52.060;1.248;2023-03-20T03:06:00;101420.28;;;6.42;55.79
63306;BME280;50735;52.060;1.248;2023-03-20T03:08:38;101420.15;;;6.20;56.15
63306;BME280;50735;52.060;1.248;2023-03-20T03:11:11;101414.80;;;6.11;56.68
63306;BME280;50735;52.060;1.248;2023-03-20T03:13:49;101414.22;;;5.98;56.46
63306;BME280;50735;52.060;1.248;2023-03-20T03:16:27;101416.77;;;6.35;55.59
63306;BME280;50735;52.060;1.248;2023-03-20T03:19:04;101412.58;;;6.41;55.83
63306;BME280;50735;52.060;1.248;2023-03-20T03:21:39;101416.07;;;6.31;55.67
63306;BME280;50735;52.060;1.248;2023-03-20T03:24:23;101415.62;;;6.53;55.64
63306;BME280;50735;52.060;1.248;2023-03-20T03:26:58;101415.10;;;6.72;55.20
63306;BME280;50735;52.060;1.248;2023-03-20T03:29:33;101410.89;;;6.37;55.85
63306;BME280;50735;52.060;1.248;2023-03-20T03:32:21;101410.36;;;6.30;56.17
63306;BME280;50735;52.060;1.248;2023-03-20T03:34:54;101412.85;;;6.26;56.69
63306;BME280;50735;52.060;1.248;2023-03-20T03:37:34;101407.75;;;6.19;56.39
63306;BME280;50735;52.060;1.248;2023-03-20T03:40:17;101405.29;;;6.25;56.26
63306;BME280;50735;52.060;1.248;2023-03-20T03:42:55;101398.59;;;6.14;56.57
63306;BME280;50735;52.060;1.248;2023-03-20T03:45:32;101400.63;;;6.01;56.74
63306;BME280;50735;52.060;1.248;2023-03-20T03:48:07;101393.09;;;5.87;57.03
63306;BME280;50735;52.060;1.248;2023-03-20T03:50:44;101389.14;;;6.15;56.98
63306;BME280;50735;52.060;1.248;2023-03-20T03:53:21;101386.68;;;5.74;56.95
63306;BME280;50735;52.060;1.248;2023-03-20T03:55:58;101390.08;;;6.15;56.55
63306;BME280;50735;52.060;1.248;2023-03-20T03:58:35;101395.50;;;6.19;56.53
63306;BME280;50735;52.060;1.248;2023-03-20T04:01:09;101394.75;;;5.93;56.88
63306;BME280;50735;52.060;1.248;2023-03-20T04:03:47;101394.89;;;5.86;57.05
63306;BME280;50735;52.060;1.248;2023-03-20T04:06:20;101389.84;;;5.85;57.10
63306;BME280;50735;52.060;1.248;2023-03-20T04:08:52;101396.61;;;5.93;57.22
63306;BME280;50735;52.060;1.248;2023-03-20T04:11:25;101398.84;;;6.15;56.90
63306;BME280;50735;52.060;1.248;2023-03-20T04:13:57;101400.95;;;6.00;56.97
63306;BME280;50735;52.060;1.248;2023-03-20T04:16:29;101402.45;;;6.12;56.83
63306;BME280;50735;52.060;1.248;2023-03-20T04:19:01;101401.54;;;6.22;56.89
63306;BME280;50735;52.060;1.248;2023-03-20T04:21:33;101398.71;;;5.45;58.43
63306;BME280;50735;52.060;1.248;2023-03-20T04:24:05;101393.31;;;5.72;57.95
63306;BME280;50735;52.060;1.248;2023-03-20T04:26:38;101392.72;;;5.87;57.49
63306;BME280;50735;52.060;1.248;2023-03-20T04:29:09;101390.38;;;5.67;57.92
63306;BME280;50735;52.060;1.248;2023-03-20T04:31:41;101389.02;;;6.04;57.49
63306;BME280;50735;52.060;1.248;2023-03-20T04:34:13;101393.55;;;6.10;56.91
63306;BME280;50735;52.060;1.248;2023-03-20T04:36:45;101394.30;;;6.21;56.83
63306;BME280;50735;52.060;1.248;2023-03-20T04:39:18;101394.76;;;6.13;56.81
63306;BME280;50735;52.060;1.248;2023-03-20T04:41:49;101391.99;;;6.17;56.88
63306;BME280;50735;52.060;1.248;2023-03-20T04:44:21;101389.58;;;6.09;57.16
63306;BME280;50735;52.060;1.248;2023-03-20T04:46:53;101390.72;;;6.18;56.73
63306;BME280;50735;52.060;1.248;2023-03-20T04:49:25;101387.30;;;6.25;56.56
63306;BME280;50735;52.060;1.248;2023-03-20T04:51:57;101384.77;;;6.45;56.46
63306;BME280;50735;52.060;1.248;2023-03-20T04:54:28;101381.08;;;5.96;57.19
63306;BME280;50735;52.060;1.248;2023-03-20T04:57:00;101377.23;;;6.16;56.68
63306;BME280;50735;52.060;1.248;2023-03-20T04:59:32;101372.71;;;5.95;57.15
63306;BME280;50735;52.060;1.248;2023-03-20T05:02:04;101375.46;;;6.05;56.95
63306;BME280;50735;52.060;1.248;2023-03-20T05:04:36;101376.16;;;6.20;57.23
63306;BME280;50735;52.060;1.248;2023-03-20T05:07:08;101365.11;;;5.58;58.24
63306;BME280;50735;52.060;1.248;2023-03-20T05:09:40;101366.16;;;5.72;57.98
63306;BME280;50735;52.060;1.248;2023-03-20T05:12:12;101362.24;;;5.89;57.53
63306;BME280;50735;52.060;1.248;2023-03-20T05:14:43;101358.54;;;6.02;57.25
63306;BME280;50735;52.060;1.248;2023-03-20T05:17:15;101353.62;;;5.85;58.16
63306;BME280;50735;52.060;1.248;2023-03-20T05:19:47;101344.81;;;5.41;58.97
63306;BME280;50735;52.060;1.248;2023-03-20T05:22:19;101352.91;;;5.73;58.22
63306;BME280;50735;52.060;1.248;2023-03-20T05:24:51;101354.80;;;5.84;57.57
63306;BME280;50735;52.060;1.248;2023-03-20T05:27:23;101357.14;;;5.85;57.89
63306;BME280;50735;52.060;1.248;2023-03-20T05:29:55;101349.76;;;5.96;57.84
63306;BME280;50735;52.060;1.248;2023-03-20T05:32:27;101348.41;;;5.73;58.14
63306;BME280;50735;52.060;1.248;2023-03-20T05:34:58;101343.49;;;5.98;57.90
63306;BME280;50735;52.060;1.248;2023-03-20T05:37:30;101341.39;;;5.82;58.54
63306;BME280;50735;52.060;1.248;2023-03-20T05:40:02;101349.54;;;5.93;57.90
63306;BME280;50735;52.060;1.248;2023-03-20T05:42:34;101352.84;;;6.18;57.83
63306;BME280;50735;52.060;1.248;2023-03-20T05:45:08;101358.57;;;6.17;57.45
63306;BME280;50735;52.060;1.248;2023-03-20T05:47:39;101363.21;;;5.98;57.88
63306;BME280;50735;52.060;1.248;2023-03-20T05:50:11;101357.45;;;5.79;58.36
63306;BME280;50735;52.060;1.248;2023-03-20T05:52:45;101356.69;;;5.94;58.54
63306;BME280;50735;52.060;1.248;2023-03-20T05:55:17;101354.97;;;5.77;58.48
63306;BME280;50735;52.060;1.248;2023-03-20T05:57:49;101353.10;;;5.77;58.68
63306;BME280;50735;52.060;1.248;2023-03-20T06:00:22;101354.96;;;5.73;58.78
63306;BME280;50735;52.060;1.248;2023-03-20T06:02:55;101350.44;;;5.99;58.61
63306;BME280;50735;52.060;1.248;2023-03-20T06:05:27;101351.58;;;5.73;58.72
63306;BME280;50735;52.060;1.248;2023-03-20T06:07:59;101351.22;;;5.72;58.93
63306;BME280;50735;52.060;1.248;2023-03-20T06:10:30;101345.03;;;5.89;58.56
63306;BME280;50735;52.060;1.248;2023-03-20T06:13:03;101352.40;;;5.81;58.72
63306;BME280;50735;52.060;1.248;2023-03-20T06:15:34;101350.45;;;5.86;58.76
63306;BME280;50735;52.060;1.248;2023-03-20T06:18:06;101349.89;;;5.88;58.60
63306;BME280;50735;52.060;1.248;2023-03-20T06:20:38;101350.83;;;5.98;58.46
63306;BME280;50735;52.060;1.248;2023-03-20T06:23:09;101360.50;;;5.78;58.65
63306;BME280;50735;52.060;1.248;2023-03-20T06:25:41;101354.21;;;5.98;58.65
63306;BME280;50735;52.060;1.248;2023-03-20T06:28:13;101351.64;;;5.82;59.59
63306;BME280;50735;52.060;1.248;2023-03-20T06:30:45;101348.83;;;5.87;59.75
63306;BME280;50735;52.060;1.248;2023-03-20T06:33:17;101353.13;;;5.72;59.71
63306;BME280;50735;52.060;1.248;2023-03-20T06:35:49;101355.62;;;5.80;59.58
63306;BME280;50735;52.060;1.248;2023-03-20T06:38:21;101349.02;;;5.85;59.37
63306;BME280;50735;52.060;1.248;2023-03-20T06:40:53;101345.50;;;5.90;59.90
63306;BME280;50735;52.060;1.248;2023-03-20T06:43:24;101347.95;;;5.78;59.86
63306;BME280;50735;52.060;1.248;2023-03-20T06:45:56;101347.59;;;5.51;60.71
63306;BME280;50735;52.060;1.248;2023-03-20T06:48:28;101349.73;;;5.62;60.01
63306;BME280;50735;52.060;1.248;2023-03-20T06:51:00;101346.94;;;5.89;59.82
63306;BME280;50735;52.060;1.248;2023-03-20T06:53:32;101343.52;;;6.06;59.43
63306;BME280;50735;52.060;1.248;2023-03-20T06:56:04;101340.38;;;6.20;62.30
63306;BME280;50735;52.060;1.248;2023-03-20T06:58:37;101348.25;;;5.80;60.00
63306;BME280;50735;52.060;1.248;2023-03-20T07:01:10;101350.71;;;5.56;60.88
63306;BME280;50735;52.060;1.248;2023-03-20T07:03:42;101344.77;;;5.70;60.59
63306;BME280;50735;52.060;1.248;2023-03-20T07:06:15;101350.45;;;5.76;60.32
63306;BME280;50735;52.060;1.248;2023-03-20T07:08:46;101353.30;;;5.65;60.77
63306;BME280;50735;52.060;1.248;2023-03-20T07:11:18;101356.56;;;6.26;60.36
63306;BME280;50735;52.060;1.248;2023-03-20T07:13:50;101359.32;;;5.85;60.39
63306;BME280;50735;52.060;1.248;2023-03-20T07:16:22;101367.68;;;6.22;59.91
63306;BME280;50735;52.060;1.248;2023-03-20T07:18:54;101368.77;;;5.91;60.14
63306;BME280;50735;52.060;1.248;2023-03-20T07:21:26;101370.58;;;5.88;60.30
63306;BME280;50735;52.060;1.248;2023-03-20T07:23:57;101372.32;;;5.95;60.51
63306;BME280;50735;52.060;1.248;2023-03-20T07:26:29;101371.28;;;5.74;60.43
63306;BME280;50735;52.060;1.248;2023-03-20T07:29:01;101372.58;;;5.57;61.16
63306;BME280;50735;52.060;1.248;2023-03-20T07:31:33;101367.49;;;5.41;61.53
63306;BME280;50735;52.060;1.248;2023-03-20T07:34:04;101371.23;;;5.74;61.18
63306;BME280;50735;52.060;1.248;2023-03-20T07:36:36;101369.14;;;5.98;60.35
63306;BME280;50735;52.060;1.248;2023-03-20T07:39:09;101368.45;;;6.27;59.68
63306;BME280;50735;52.060;1.248;2023-03-20T07:41:40;101367.23;;;6.43;59.27
63306;BME280;50735;52.060;1.248;2023-03-20T07:44:12;101373.11;;;6.25;59.73
63306;BME280;50735;52.060;1.248;2023-03-20T07:46:45;101368.45;;;6.28;59.50
63306;BME280;50735;52.060;1.248;2023-03-20T07:49:17;101363.70;;;6.42;59.36
63306;BME280;50735;52.060;1.248;2023-03-20T07:51:49;101369.09;;;6.34;59.52
63306;BME280;50735;52.060;1.248;2023-03-20T07:54:22;101368.07;;;6.51;58.75
63306;BME280;50735;52.060;1.248;2023-03-20T07:56:54;101365.33;;;6.60;59.20
63306;BME280;50735;52.060;1.248;2023-03-20T07:59:26;101369.29;;;6.17;60.20
63306;BME280;50735;52.060;1.248;2023-03-20T08:01:58;101368.73;;;6.25;59.98
63306;BME280;50735;52.060;1.248;2023-03-20T08:04:30;101370.49;;;6.17;60.36
63306;BME280;50735;52.060;1.248;2023-03-20T08:07:02;101360.06;;;6.28;59.61
63306;BME280;50735;52.060;1.248;2023-03-20T08:09:34;101364.24;;;6.71;59.24
63306;BME280;50735;52.060;1.248;2023-03-20T08:12:07;101367.39;;;6.63;59.01
63306;BME280;50735;52.060;1.248;2023-03-20T08:14:38;101369.02;;;6.77;59.15
63306;BME280;50735;52.060;1.248;2023-03-20T08:17:10;101370.54;;;6.72;58.99
63306;BME280;50735;52.060;1.248;2023-03-20T08:19:41;101364.25;;;6.69;58.39
63306;BME280;50735;52.060;1.248;2023-03-20T08:22:13;101365.94;;;6.56;58.94
63306;BME280;50735;52.060;1.248;2023-03-20T08:24:45;101364.73;;;7.00;58.65
63306;BME280;50735;52.060;1.248;2023-03-20T08:27:17;101366.51;;;6.72;59.41
63306;BME280;50735;52.060;1.248;2023-03-20T08:29:48;101369.21;;;6.60;59.20
63306;BME280;50735;52.060;1.248;2023-03-20T08:32:21;101367.53;;;6.66;59.06
63306;BME280;50735;52.060;1.248;2023-03-20T08:34:52;101366.60;;;6.65;59.88
63306;BME280;50735;52.060;1.248;2023-03-20T08:37:24;101371.12;;;6.97;59.63
63306;BME280;50735;52.060;1.248;2023-03-20T08:39:56;101372.73;;;6.76;59.49
63306;BME280;50735;52.060;1.248;2023-03-20T08:42:28;101373.77;;;6.67;59.94
63306;BME280;50735;52.060;1.248;2023-03-20T08:45:00;101372.19;;;7.41;59.11
63306;BME280;50735;52.060;1.248;2023-03-20T08:47:31;101378.64;;;7.21;59.52
63306;BME280;50735;52.060;1.248;2023-03-20T08:50:04;101374.59;;;7.23;59.78
63306;BME280;50735;52.060;1.248;2023-03-20T08:52:36;101370.21;;;7.08;59.40
63306;BME280;50735;52.060;1.248;2023-03-20T08:55:08;101376.16;;;6.79;60.42
63306;BME280;50735;52.060;1.248;2023-03-20T08:57:40;101379.69;;;7.14;60.31
63306;BME280;50735;52.060;1.248;2023-03-20T09:00:14;101381.24;;;6.98;60.36
63306;BME280;50735;52.060;1.248;2023-03-20T09:02:46;101383.01;;;6.66;61.37
63306;BME280;50735;52.060;1.248;2023-03-20T09:05:18;101381.73;;;6.98;60.81
63306;BME280;50735;52.060;1.248;2023-03-20T09:07:50;101381.50;;;6.98;60.99
63306;BME280;50735;52.060;1.248;2023-03-20T09:10:22;101379.02;;;7.18;60.79
63306;BME280;50735;52.060;1.248;2023-03-20T09:12:53;101376.37;;;7.34;60.51
63306;BME280;50735;52.060;1.248;2023-03-20T09:15:25;101379.57;;;7.36;60.66
63306;BME280;50735;52.060;1.248;2023-03-20T09:17:57;101381.79;;;7.66;60.05
63306;BME280;50735;52.060;1.248;2023-03-20T09:20:29;101384.01;;;7.65;60.14
63306;BME280;50735;52.060;1.248;2023-03-20T09:23:01;101380.48;;;7.76;59.94
63306;BME280;50735;52.060;1.248;2023-03-20T09:25:32;101382.44;;;7.82;59.85
63306;BME280;50735;52.060;1.248;2023-03-20T09:28:04;101382.85;;;7.92;59.84
63306;BME280;50735;52.060;1.248;2023-03-20T09:30:36;101386.51;;;8.07;59.80
63306;BME280;50735;52.060;1.248;2023-03-20T09:33:08;101387.99;;;8.15;59.53
63306;BME280;50735;52.060;1.248;2023-03-20T09:35:39;101389.09;;;8.18;59.74
63306;BME280;50735;52.060;1.248;2023-03-20T09:38:12;101387.42;;;7.90;60.01
63306;BME280;50735;52.060;1.248;2023-03-20T09:40:53;101387.33;;;7.86;60.50
63306;BME280;50735;52.060;1.248;2023-03-20T09:43:36;101384.76;;;8.17;60.48
63306;BME280;50735;52.060;1.248;2023-03-20T09:46:27;101388.42;;;7.92;60.87
63306;BME280;50735;52.060;1.248;2023-03-20T09:49:08;101388.90;;;7.97;60.94
63306;BME280;50735;52.060;1.248;2023-03-20T09:51:46;101391.87;;;8.09;60.96
63306;BME280;50735;52.060;1.248;2023-03-20T09:54:24;101394.14;;;8.03;60.51
63306;BME280;50735;52.060;1.248;2023-03-20T09:56:57;101393.97;;;8.27;60.65
63306;BME280;50735;52.060;1.248;2023-03-20T09:59:33;101393.51;;;8.00;61.69
63306;BME280;50735;52.060;1.248;2023-03-20T10:02:13;101391.19;;;8.11;61.46
63306;BME280;50735;52.060;1.248;2023-03-20T10:04:47;101396.01;;;8.09;61.59
63306;BME280;50735;52.060;1.248;2023-03-20T10:07:21;101394.82;;;7.82;62.64
63306;BME280;50735;52.060;1.248;2023-03-20T10:09:53;101393.30;;;7.55;62.66
63306;BME280;50735;52.060;1.248;2023-03-20T10:12:37;101389.57;;;7.81;62.18
63306;BME280;50735;52.060;1.248;2023-03-20T10:15:23;101392.97;;;8.07;62.03
63306;BME280;50735;52.060;1.248;2023-03-20T10:18:04;101392.25;;;8.07;62.12
63306;BME280;50735;52.060;1.248;2023-03-20T10:20:45;101394.71;;;8.08;61.64
63306;BME280;50735;52.060;1.248;2023-03-20T10:23:25;101394.79;;;8.21;61.25
63306;BME280;50735;52.060;1.248;2023-03-20T10:26:01;101391.48;;;8.61;60.99
63306;BME280;50735;52.060;1.248;2023-03-20T10:28:40;101388.10;;;8.50;60.97
63306;BME280;50735;52.060;1.248;2023-03-20T10:31:24;101387.41;;;8.84;61.30
63306;BME280;50735;52.060;1.248;2023-03-20T10:34:09;101383.72;;;8.62;61.27
63306;BME280;50735;52.060;1.248;2023-03-20T10:36:54;101383.01;;;8.32;61.73
63306;BME280;50735;52.060;1.248;2023-03-20T10:39:38;101382.60;;;8.64;61.48
63306;BME280;50735;52.060;1.248;2023-03-20T10:42:14;101378.65;;;8.44;61.68
63306;BME280;50735;52.060;1.248;2023-03-20T10:44:52;101368.82;;;8.89;61.38
63306;BME280;50735;52.060;1.248;2023-03-20T10:47:29;101361.87;;;8.56;61.16
63306;BME280;50735;52.060;1.248;2023-03-20T10:50:06;101365.54;;;8.70;61.40
63306;BME280;50735;52.060;1.248;2023-03-20T10:52:43;101360.87;;;8.83;60.84
63306;BME280;50735;52.060;1.248;2023-03-20T10:55:18;101358.42;;;8.55;61.72
63306;BME280;50735;52.060;1.248;2023-03-20T10:57:56;101357.73;;;8.80;61.29
63306;BME280;50735;52.060;1.248;2023-03-20T11:00:30;101362.51;;;8.75;61.47
63306;BME280;50735;52.060;1.248;2023-03-20T11:03:19;101358.65;;;8.64;61.93
63306;BME280;50735;52.060;1.248;2023-03-20T11:05:54;101359.60;;;8.62;62.06
63306;BME280;50735;52.060;1.248;2023-03-20T11:08:33;101363.59;;;8.49;62.51
63306;BME280;50735;52.060;1.248;2023-03-20T11:11:07;101366.50;;;8.74;63.01
63306;BME280;50735;52.060;1.248;2023-03-20T11:13:41;101366.32;;;8.61;63.15
63306;BME280;50735;52.060;1.248;2023-03-20T11:16:19;101364.65;;;8.67;63.02
63306;BME280;50735;52.060;1.248;2023-03-20T11:18:52;101363.17;;;8.64;63.38
63306;BME280;50735;52.060;1.248;2023-03-20T11:21:26;101362.97;;;8.82;62.93
63306;BME280;50735;52.060;1.248;2023-03-20T11:24:00;101357.05;;;8.97;62.43
63306;BME280;50735;52.060;1.248;2023-03-20T11:26:36;101355.10;;;8.69;63.20
63306;BME280;50735;52.060;1.248;2023-03-20T11:29:18;101357.19;;;8.73;63.51
63306;BME280;50735;52.060;1.248;2023-03-20T11:31:52;101356.14;;;8.53;63.65
63306;BME280;50735;52.060;1.248;2023-03-20T11:34:28;101352.61;;;8.45;63.31
63306;BME280;50735;52.060;1.248;2023-03-20T11:37:06;101350.38;;;9.19;62.28
63306;BME280;50735;52.060;1.248;2023-03-20T11:39:52;101350.47;;;8.92;62.17
63306;BME280;50735;52.060;1.248;2023-03-20T11:42:28;101348.48;;;8.91;61.96
63306;BME280;50735;52.060;1.248;2023-03-20T11:45:03;101350.06;;;9.03;62.37
63306;BME280;50735;52.060;1.248;2023-03-20T11:47:34;101350.20;;;9.49;61.35
63306;BME280;50735;52.060;1.248;2023-03-20T11:50:24;101347.20;;;9.37;61.48
63306;BME280;50735;52.060;1.248;2023-03-20T11:52:57;101347.64;;;9.70;61.26
63306;BME280;50735;52.060;1.248;2023-03-20T11:55:31;101344.14;;;9.10;62.09
63306;BME280;50735;52.060;1.248;2023-03-20T11:58:04;101350.02;;;9.27;61.69
63306;BME280;50735;52.060;1.248;2023-03-20T12:00:39;101345.24;;;9.60;61.02
63306;BME280;50735;52.060;1.248;2023-03-20T12:03:36;101345.33;;;9.34;61.32
63306;BME280;50735;52.060;1.248;2023-03-20T12:06:15;101342.28;;;9.37;60.73
63306;BME280;50735;52.060;1.248;2023-03-20T12:08:51;101339.72;;;9.60;60.89
63306;BME280;50735;52.060;1.248;2023-03-20T12:11:37;101336.98;;;9.83;60.19
63306;BME280;50735;52.060;1.248;2023-03-20T12:14:18;101341.18;;;9.91;60.22
63306;BME280;50735;52.060;1.248;2023-03-20T12:16:56;101343.98;;;9.68;60.46
63306;BME280;50735;52.060;1.248;2023-03-20T12:19:33;101342.15;;;9.82;60.34
63306;BME280;50735;52.060;1.248;2023-03-20T12:22:13;101340.74;;;10.22;59.89
63306;BME280;50735;52.060;1.248;2023-03-20T12:24:55;101341.63;;;10.32;59.12
63306;BME280;50735;52.060;1.248;2023-03-20T12:27:32;101337.74;;;10.48;58.63
63306;BME280;50735;52.060;1.248;2023-03-20T12:30:13;101341.10;;;10.43;58.59
63306;BME280;50735;52.060;1.248;2023-03-20T12:32:51;101347.90;;;9.97;59.67
63306;BME280;50735;52.060;1.248;2023-03-20T12:35:27;101335.90;;;10.45;59.15
63306;BME280;50735;52.060;1.248;2023-03-20T12:37:59;101333.01;;;10.44;58.74
63306;BME280;50735;52.060;1.248;2023-03-20T12:40:38;101324.66;;;10.69;58.44
63306;BME280;50735;52.060;1.248;2023-03-20T12:43:14;101329.91;;;10.28;58.80
63306;BME280;50735;52.060;1.248;2023-03-20T12:45:52;101331.24;;;10.48;58.80
63306;BME280;50735;52.060;1.248;2023-03-20T12:48:40;101330.62;;;10.39;58.92
63306;BME280;50735;52.060;1.248;2023-03-20T12:51:22;101329.38;;;10.70;58.90
63306;BME280;50735;52.060;1.248;2023-03-20T12:54:06;101322.96;;;10.52;58.80
63306;BME280;50735;52.060;1.248;2023-03-20T12:56:56;101321.16;;;10.62;58.46
63306;BME280;50735;52.060;1.248;2023-03-20T12:59:42;101314.46;;;10.57;58.63
63306;BME280;50735;52.060;1.248;2023-03-20T13:02:26;101310.24;;;10.74;59.15
63306;BME280;50735;52.060;1.248;2023-03-20T13:05:08;101319.38;;;10.15;59.99
63306;BME280;50735;52.060;1.248;2023-03-20T13:07:57;101308.71;;;10.18;59.84
63306;BME280;50735;52.060;1.248;2023-03-20T13:10:34;101309.82;;;10.38;59.89
63306;BME280;50735;52.060;1.248;2023-03-20T13:13:15;101311.52;;;10.52;59.65
63306;BME280;50735;52.060;1.248;2023-03-20T13:16:04;101309.31;;;10.30;59.91
63306;BME280;50735;52.060;1.248;2023-03-20T13:18:47;101309.93;;;10.01;60.86
63306;BME280;50735;52.060;1.248;2023-03-20T13:21:28;101302.98;;;10.20;60.54
63306;BME280;50735;52.060;1.248;2023-03-20T13:24:13;101299.08;;;10.62;59.73
63306;BME280;50735;52.060;1.248;2023-03-20T13:26:56;101293.33;;;10.81;59.23
63306;BME280;50735;52.060;1.248;2023-03-20T13:29:39;101289.89;;;10.80;58.94
63306;BME280;50735;52.060;1.248;2023-03-20T13:32:22;101283.91;;;11.14;58.56
63306;BME280;50735;52.060;1.248;2023-03-20T13:35:09;101288.21;;;10.97;58.60
63306;BME280;50735;52.060;1.248;2023-03-20T13:37:48;101285.83;;;10.79;58.71
63306;BME280;50735;52.060;1.248;2023-03-20T13:40:25;101284.51;;;10.56;59.38
63306;BME280;50735;52.060;1.248;2023-03-20T13:43:04;101284.24;;;10.62;59.43
63306;BME280;50735;52.060;1.248;2023-03-20T13:45:41;101284.45;;;10.69;59.24